createdAt,value
2023-01-23T00:01:06.824Z,20.70
2023-01-23T00:04:10.513Z,20.27
2023-01-23T00:07:13.137Z,17.77
2023-01-23T00:10:18.186Z,14.98
2023-01-23T00:13:21.752Z,10.60
2023-01-23T00:16:26.873Z,15.20
2023-01-23T00:19:31.495Z,10.25
2023-01-23T00:22:34.253Z,12.88
2023-01-23T00:25:36.883Z,11.27
2023-01-23T00:28:39.724Z,14.25
2023-01-23T00:31:43.497Z,14.77
2023-01-23T00:34:46.688Z,11.88
2023-01-23T00:37:51.358Z,12.02
2023-01-23T00:40:56.560Z,10.82
2023-01-23T00:43:59.146Z,9.55
2023-01-23T00:47:01.668Z,9.00
2023-01-23T00:50:04.843Z,8.15
2023-01-23T00:53:07.533Z,9.95
2023-01-23T00:56:10.220Z,11.25
2023-01-23T00:59:13.046Z,11.32
2023-01-23T01:02:15.716Z,14.40
2023-01-23T01:05:18.562Z,8.80
2023-01-23T01:08:23.641Z,11.07
2023-01-23T01:11:26.717Z,11.23
2023-01-23T01:14:29.453Z,17.17
2023-01-23T01:17:32.073Z,12.35
2023-01-23T01:20:35.415Z,11.00
2023-01-23T01:23:38.632Z,16.80
2023-01-23T01:26:41.258Z,15.68
2023-01-23T01:29:44.375Z,11.73
2023-01-23T01:32:47.012Z,13.55
2023-01-23T01:35:49.692Z,12.35
2023-01-23T01:38:52.277Z,12.27
2023-01-23T01:41:54.925Z,9.40
2023-01-23T01:45:01.632Z,10.13
2023-01-23T01:48:04.438Z,10.90
2023-01-23T01:51:17.358Z,10.95
2023-01-23T01:54:19.977Z,11.88
2023-01-23T01:57:28.927Z,10.80
2023-01-23T02:00:31.664Z,12.95
2023-01-23T02:03:34.896Z,14.48
2023-01-23T02:06:37.897Z,11.98
2023-01-23T02:09:41.745Z,9.85
2023-01-23T02:12:49.129Z,12.57
2023-01-23T02:15:52.842Z,10.52
2023-01-23T02:19:02.208Z,7.28
2023-01-23T02:22:13.052Z,15.55
2023-01-23T02:25:31.888Z,10.13
2023-01-23T02:28:53.765Z,10.68
2023-01-23T02:31:58.962Z,19.33
2023-01-23T02:35:10.155Z,8.07
2023-01-23T02:38:12.960Z,14.65
2023-01-23T02:41:16.505Z,8.75
2023-01-23T02:44:29.264Z,11.45
2023-01-23T02:47:34.717Z,13.98
2023-01-23T02:50:37.404Z,13.85
2023-01-23T02:53:40.103Z,14.15
2023-01-23T02:56:43.186Z,9.23
2023-01-23T03:00:04.537Z,11.90
2023-01-23T03:03:10.900Z,14.68
2023-01-23T03:06:15.133Z,11.18
2023-01-23T03:09:18.419Z,14.95
2023-01-23T03:12:21.818Z,12.85
2023-01-23T03:15:24.682Z,9.40
2023-01-23T03:18:31.347Z,13.80
2023-01-23T03:21:34.870Z,9.77
2023-01-23T03:24:37.774Z,11.13
2023-01-23T03:27:40.434Z,15.50
2023-01-23T03:30:43.069Z,8.10
2023-01-23T03:33:45.855Z,9.63
2023-01-23T03:36:49.524Z,11.95
2023-01-23T03:40:10.843Z,11.82
2023-01-23T03:43:14.113Z,12.82
2023-01-23T03:46:22.560Z,11.48
2023-01-23T03:49:25.554Z,9.95
2023-01-23T03:52:33.740Z,8.10
2023-01-23T03:55:36.602Z,9.02
2023-01-23T03:58:39.407Z,9.73
2023-01-23T04:01:41.969Z,14.35
2023-01-23T04:04:44.607Z,11.50
2023-01-23T04:07:47.689Z,11.10
2023-01-23T04:10:50.488Z,10.18
2023-01-23T04:13:54.076Z,12.07
2023-01-23T04:16:56.852Z,7.72
2023-01-23T04:19:59.513Z,14.02
2023-01-23T04:23:02.555Z,9.25
2023-01-23T04:26:06.045Z,10.70
2023-01-23T04:29:09.150Z,10.82
2023-01-23T04:32:11.771Z,11.13
2023-01-23T04:35:20.477Z,13.25
2023-01-23T04:38:24.716Z,8.70
2023-01-23T04:41:29.781Z,6.47
2023-01-23T04:44:38.030Z,13.73
2023-01-23T04:48:00.615Z,9.45
2023-01-23T04:51:03.621Z,14.38
2023-01-23T04:54:06.370Z,9.75
2023-01-23T04:57:09.427Z,9.00
2023-01-23T05:00:13.822Z,8.85
2023-01-23T05:03:17.531Z,9.52
2023-01-23T05:06:22.730Z,4.15
2023-01-23T05:09:26.725Z,5.45
2023-01-23T05:12:29.903Z,17.17
2023-01-23T05:15:32.739Z,8.70
2023-01-23T05:18:35.821Z,10.98
2023-01-23T05:21:38.613Z,7.28
2023-01-23T05:24:45.157Z,6.40
2023-01-23T05:27:48.501Z,7.75
2023-01-23T05:30:52.084Z,7.40
2023-01-23T05:34:17.941Z,7.85
2023-01-23T05:37:25.521Z,7.72
2023-01-23T05:40:39.440Z,9.85
2023-01-23T05:43:51.004Z,8.05
2023-01-23T05:47:04.773Z,9.30
2023-01-23T05:50:10.625Z,10.80
2023-01-23T05:53:14.349Z,10.63
2023-01-23T05:56:19.813Z,11.25
2023-01-23T05:59:51.431Z,7.80
2023-01-23T06:03:17.621Z,5.47
2023-01-23T06:06:27.363Z,11.93
2023-01-23T06:09:30.580Z,5.78
2023-01-23T06:12:34.258Z,9.27
2023-01-23T06:15:37.950Z,9.73
2023-01-23T06:18:45.487Z,5.82
2023-01-23T06:21:50.116Z,8.63
2023-01-23T06:24:54.508Z,8.85
2023-01-23T06:27:57.641Z,7.47
2023-01-23T06:31:04.886Z,7.10
2023-01-23T06:34:19.198Z,12.43
2023-01-23T06:37:31.312Z,9.88
2023-01-23T06:40:34.565Z,6.10
2023-01-23T06:44:06.899Z,6.95
2023-01-23T06:47:09.967Z,7.75
2023-01-23T06:50:12.973Z,9.38
2023-01-23T06:53:16.962Z,5.07
2023-01-23T06:56:20.987Z,10.23
2023-01-23T06:59:24.514Z,8.82
2023-01-23T07:02:27.449Z,5.88
2023-01-23T07:05:31.963Z,8.55
2023-01-23T07:08:35.676Z,7.03
2023-01-23T07:11:39.718Z,6.28
2023-01-23T07:14:42.956Z,10.45
2023-01-23T07:17:47.851Z,10.35
2023-01-23T07:20:51.058Z,8.30
2023-01-23T07:23:54.513Z,12.57
2023-01-23T07:26:59.601Z,7.55
2023-01-23T07:30:02.568Z,9.55
2023-01-23T07:33:05.951Z,7.53
2023-01-23T07:36:09.949Z,6.80
2023-01-23T07:39:12.565Z,8.30
2023-01-23T07:42:16.075Z,6.47
2023-01-23T07:45:19.005Z,6.00
2023-01-23T07:48:22.418Z,10.65
2023-01-23T07:51:25.881Z,7.47
2023-01-23T07:54:28.943Z,9.07
2023-01-23T07:57:31.822Z,8.77
2023-01-23T08:00:35.231Z,5.63
2023-01-23T08:03:38.389Z,12.27
2023-01-23T08:06:41.031Z,10.77
2023-01-23T08:09:44.257Z,10.95
2023-01-23T08:12:47.335Z,8.02
2023-01-23T08:15:50.690Z,5.00
2023-01-23T08:18:53.753Z,8.57
2023-01-23T08:21:56.523Z,8.68
2023-01-23T08:24:59.419Z,5.97
2023-01-23T08:28:02.046Z,6.75
2023-01-23T08:31:07.669Z,8.38
2023-01-23T08:34:10.712Z,8.90
2023-01-23T08:37:13.676Z,10.18
2023-01-23T08:40:16.832Z,8.80
2023-01-23T08:43:21.409Z,11.38
2023-01-23T08:46:24.323Z,17.95
2023-01-23T08:49:27.644Z,10.13
2023-01-23T08:52:30.426Z,8.13
2023-01-23T08:55:33.548Z,10.82
2023-01-23T08:58:36.363Z,11.43
2023-01-23T09:01:39.372Z,5.55
2023-01-23T09:04:42.554Z,10.68
2023-01-23T09:07:45.432Z,7.60
2023-01-23T09:10:48.384Z,10.88
2023-01-23T09:13:53.843Z,8.32
2023-01-23T09:16:57.466Z,10.20
2023-01-23T09:20:00.976Z,7.07
2023-01-23T09:23:03.839Z,6.75
2023-01-23T09:26:11.443Z,6.40
2023-01-23T09:29:15.638Z,7.97
2023-01-23T09:32:18.607Z,7.13
2023-01-23T09:35:23.516Z,9.38
2023-01-23T09:38:27.469Z,6.22
2023-01-23T09:41:31.247Z,9.35
2023-01-23T09:44:45.305Z,6.28
2023-01-23T09:48:37.652Z,5.85
2023-01-23T09:51:53.260Z,7.47
2023-01-23T09:55:05.751Z,7.20
2023-01-23T09:58:36.225Z,10.88
2023-01-23T10:01:39.062Z,7.13
2023-01-23T10:04:42.021Z,6.10
2023-01-23T10:08:06.324Z,8.20
2023-01-23T10:11:32.344Z,5.47
2023-01-23T10:14:56.606Z,5.82
2023-01-23T10:18:24.369Z,9.35
2023-01-23T10:21:32.785Z,6.53
2023-01-23T10:25:24.304Z,7.10
2023-01-23T10:28:38.431Z,11.32
2023-01-23T10:31:56.692Z,3.47
2023-01-23T10:35:11.973Z,8.18
2023-01-23T10:38:26.549Z,4.70
2023-01-23T10:41:29.603Z,6.88
2023-01-23T10:44:32.467Z,5.53
2023-01-23T10:47:54.633Z,30.38
2023-01-23T10:50:58.502Z,5.57
2023-01-23T10:54:30.644Z,5.63
2023-01-23T10:57:48.705Z,5.93
2023-01-23T11:00:51.439Z,5.25
2023-01-23T11:03:54.445Z,7.60
2023-01-23T11:07:17.732Z,11.25
2023-01-23T11:10:22.424Z,5.35
2023-01-23T11:13:30.989Z,6.88
2023-01-23T11:16:33.921Z,7.00
2023-01-23T11:19:37.728Z,8.00
2023-01-23T11:22:42.413Z,4.30
2023-01-23T11:25:53.223Z,4.53
2023-01-23T11:28:56.365Z,6.43
2023-01-23T11:32:02.844Z,7.13
2023-01-23T11:35:17.284Z,6.17
2023-01-23T11:38:30.738Z,7.28
2023-01-23T11:41:36.907Z,3.97
2023-01-23T11:44:46.465Z,4.78
2023-01-23T11:48:12.610Z,5.85
2023-01-23T11:51:30.882Z,5.55
2023-01-23T11:54:42.949Z,6.50
2023-01-23T11:58:27.666Z,7.22
2023-01-23T12:02:02.081Z,5.43
2023-01-23T12:05:25.703Z,4.45
2023-01-23T12:08:38.361Z,6.88
2023-01-23T12:11:47.371Z,6.57
2023-01-23T12:15:02.564Z,4.28
2023-01-23T12:18:05.395Z,4.93
2023-01-23T12:21:39.133Z,6.57
2023-01-23T12:24:51.048Z,4.88
2023-01-23T12:28:32.161Z,4.15
2023-01-23T12:31:53.845Z,10.43
2023-01-23T12:35:19.990Z,7.68
2023-01-23T12:38:31.528Z,5.07
2023-01-23T12:42:04.008Z,6.63
2023-01-23T12:45:13.904Z,5.13
2023-01-23T12:48:22.924Z,3.83
2023-01-23T12:51:34.534Z,7.20
2023-01-23T12:54:43.730Z,3.63
2023-01-23T12:58:00.171Z,7.65
2023-01-23T13:01:48.340Z,4.22
2023-01-23T13:04:57.551Z,3.47
2023-01-23T13:08:22.190Z,5.78
2023-01-23T13:11:43.545Z,5.43
2023-01-23T13:15:06.980Z,3.67
2023-01-23T13:18:28.258Z,6.20
2023-01-23T13:21:50.368Z,6.60
2023-01-23T13:25:13.690Z,6.38
2023-01-23T13:28:45.919Z,3.67
2023-01-23T13:31:54.015Z,3.17
2023-01-23T13:34:57.168Z,3.55
2023-01-23T13:38:02.401Z,3.65
2023-01-23T13:41:08.898Z,3.85
2023-01-23T13:44:35.752Z,2.90
2023-01-23T14:22:48.043Z,3.95
2023-01-23T14:25:51.173Z,8.95
2023-01-23T14:29:03.547Z,5.85
2023-01-23T14:32:24.662Z,5.63
2023-01-23T14:35:33.123Z,3.20
2023-01-23T14:38:36.350Z,5.95
2023-01-23T14:41:41.558Z,6.93
2023-01-23T14:44:46.700Z,3.28
2023-01-23T14:47:59.704Z,3.35
2023-01-23T14:51:17.362Z,3.85
2023-01-23T14:54:32.578Z,3.88
2023-01-23T14:57:37.123Z,3.17
2023-01-23T15:00:41.389Z,5.72
2023-01-23T15:03:52.071Z,2.75
2023-01-23T15:06:58.153Z,5.07
2023-01-23T15:10:01.193Z,2.63
2023-01-23T15:13:26.578Z,3.65
2023-01-23T15:16:36.404Z,2.55
2023-01-23T15:19:40.119Z,4.22
2023-01-23T15:22:43.079Z,4.30
2023-01-23T15:25:54.624Z,4.18
2023-01-23T15:29:10.047Z,6.38
2023-01-23T15:32:20.436Z,2.95
2023-01-23T15:35:23.349Z,4.30
2023-01-23T15:38:26.490Z,2.80
2023-01-23T15:41:50.937Z,5.90
2023-01-23T15:44:54.118Z,5.20
2023-01-23T15:47:56.879Z,3.40
2023-01-23T15:51:00.968Z,3.05
2023-01-23T15:54:05.166Z,7.43
2023-01-23T15:57:09.652Z,2.78
2023-01-23T16:00:21.363Z,3.60
2023-01-23T16:03:24.382Z,4.80
2023-01-23T16:06:27.282Z,3.83
2023-01-23T16:09:32.434Z,2.97
2023-01-23T16:12:39.197Z,3.38
2023-01-23T16:15:43.132Z,3.60
2023-01-23T16:18:46.945Z,4.45
2023-01-23T16:22:03.183Z,3.60
2023-01-23T16:25:07.969Z,5.73
2023-01-23T16:28:22.660Z,4.38
2023-01-23T16:31:25.771Z,7.03
2023-01-23T16:34:28.846Z,3.38
2023-01-23T16:37:31.997Z,3.55
2023-01-23T16:40:35.359Z,3.35
2023-01-23T16:43:38.512Z,2.78
2023-01-23T16:46:41.386Z,3.97
2023-01-23T16:49:52.718Z,3.42
2023-01-23T16:53:02.868Z,5.75
2023-01-23T16:56:06.794Z,5.82
2023-01-23T16:59:15.574Z,2.80
2023-01-23T17:02:22.855Z,4.47
2023-01-23T17:05:26.214Z,3.65
2023-01-23T17:08:28.966Z,3.28
2023-01-23T17:11:43.949Z,4.88
2023-01-23T17:14:48.961Z,4.10
2023-01-23T17:17:53.332Z,3.30
2023-01-23T17:20:57.003Z,6.47
2023-01-23T17:24:00.005Z,1.77
2023-01-23T17:27:03.154Z,3.78
2023-01-23T17:30:06.630Z,4.18
2023-01-23T17:33:19.628Z,3.70
2023-01-23T17:36:22.473Z,3.47
2023-01-23T17:39:26.041Z,2.65
2023-01-23T17:42:28.894Z,4.25
2023-01-23T17:45:31.956Z,4.47
2023-01-23T17:48:39.194Z,4.43
2023-01-23T17:51:42.368Z,3.60
2023-01-23T17:54:46.644Z,4.07
2023-01-23T17:57:50.537Z,5.18
2023-01-23T18:00:54.331Z,3.97
2023-01-23T18:03:57.769Z,3.67
2023-01-23T18:07:00.904Z,5.82
2023-01-23T18:10:09.251Z,4.45
2023-01-23T18:13:19.308Z,5.07
2023-01-23T18:16:27.477Z,3.72
2023-01-23T18:19:30.923Z,5.82
2023-01-23T18:22:34.338Z,3.90
2023-01-23T18:25:37.299Z,2.88
2023-01-23T18:29:04.053Z,5.68
2023-01-23T18:32:31.655Z,3.15
2023-01-23T18:35:42.578Z,3.13
2023-01-23T18:39:10.280Z,4.38
2023-01-23T18:42:17.800Z,5.05
2023-01-23T18:45:27.409Z,3.40
2023-01-23T18:48:35.511Z,4.57
2023-01-23T18:51:50.669Z,3.65
2023-01-23T18:55:03.062Z,8.02
2023-01-23T18:58:21.598Z,6.07
2023-01-23T19:01:52.427Z,5.03
2023-01-23T19:04:57.119Z,8.10
2023-01-23T19:08:02.497Z,4.90
2023-01-23T19:11:07.653Z,6.13
2023-01-23T19:14:47.498Z,5.95
2023-01-23T19:18:47.985Z,4.13
2023-01-23T19:21:52.498Z,5.40
2023-01-23T19:24:57.529Z,4.95
2023-01-23T19:28:02.683Z,5.95
2023-01-23T19:31:16.749Z,3.53
2023-01-23T19:34:23.180Z,4.82
2023-01-23T19:37:28.588Z,3.42
2023-01-23T19:40:31.683Z,5.07
2023-01-23T19:43:34.544Z,4.38
2023-01-23T19:46:37.536Z,3.67
2023-01-23T19:49:40.823Z,3.80
2023-01-23T19:52:47.259Z,5.30
2023-01-23T19:55:50.447Z,3.30
2023-01-23T19:58:53.960Z,5.53
2023-01-23T20:01:59.064Z,4.43
2023-01-23T20:05:06.312Z,2.83
2023-01-23T20:08:10.267Z,4.63
2023-01-23T20:11:13.050Z,4.22
2023-01-23T20:14:16.412Z,3.03
2023-01-23T20:17:19.356Z,2.88
2023-01-23T20:20:23.317Z,3.80
2023-01-23T20:23:26.697Z,8.10
2023-01-23T20:26:30.017Z,5.50
2023-01-23T20:29:33.372Z,5.28
2023-01-23T20:32:36.385Z,6.13
2023-01-23T20:35:39.742Z,6.13
2023-01-23T20:38:43.895Z,3.30
2023-01-23T20:41:46.796Z,5.70
2023-01-23T20:44:49.789Z,5.70
2023-01-23T20:47:52.685Z,8.88
2023-01-23T20:50:57.749Z,4.38
2023-01-23T20:54:00.811Z,6.80
2023-01-23T20:57:03.833Z,6.90
2023-01-23T21:00:07.250Z,6.10
2023-01-23T21:03:10.384Z,6.80
2023-01-23T21:06:14.969Z,11.10
2023-01-23T21:09:17.881Z,4.82
2023-01-23T21:12:20.933Z,6.40
2023-01-23T21:15:24.183Z,3.70
2023-01-23T21:18:27.315Z,6.28
2023-01-23T21:21:30.310Z,10.65
2023-01-23T21:24:34.944Z,5.20
2023-01-23T21:27:37.950Z,5.95
2023-01-23T21:30:41.310Z,5.78
2023-01-23T21:33:45.221Z,4.43
2023-01-23T21:36:47.989Z,5.53
2023-01-23T21:39:50.860Z,5.10
2023-01-23T21:42:53.784Z,4.82
2023-01-23T21:45:59.708Z,7.38
2023-01-23T21:49:02.541Z,3.92
2023-01-23T21:52:05.543Z,4.00
2023-01-23T21:55:08.637Z,4.90
2023-01-23T21:58:11.298Z,4.15
2023-01-23T22:01:38.208Z,5.22
2023-01-23T22:04:40.936Z,7.50
2023-01-23T22:07:43.770Z,3.97
2023-01-23T22:10:46.450Z,4.90
2023-01-23T22:13:49.062Z,7.25
2023-01-23T22:16:52.008Z,4.88
2023-01-23T22:19:54.916Z,3.92
2023-01-23T22:22:57.539Z,4.00
2023-01-23T22:26:03.010Z,6.18
2023-01-23T22:29:05.903Z,5.03
2023-01-23T22:32:08.982Z,6.40
2023-01-23T22:35:11.651Z,7.47
2023-01-23T22:38:15.761Z,5.15
2023-01-23T22:41:19.037Z,5.85
2023-01-23T22:44:21.677Z,4.63
2023-01-23T22:47:24.439Z,4.25
2023-01-23T22:50:27.583Z,7.13
2023-01-23T22:53:30.787Z,4.25
2023-01-23T22:56:33.402Z,7.60
2023-01-23T22:59:35.919Z,5.40
2023-01-23T23:02:39.473Z,7.68
2023-01-23T23:05:42.157Z,5.90
2023-01-23T23:08:47.609Z,4.25
2023-01-23T23:11:52.082Z,4.28
2023-01-23T23:14:55.111Z,3.83
2023-01-23T23:17:57.913Z,6.45
2023-01-23T23:21:06.127Z,5.88
2023-01-23T23:24:11.243Z,5.18
2023-01-23T23:27:13.852Z,6.38
2023-01-23T23:30:16.897Z,6.97
2023-01-23T23:33:19.816Z,8.30
2023-01-23T23:36:22.639Z,7.07
2023-01-23T23:39:26.079Z,5.30
2023-01-23T23:42:28.710Z,6.05
2023-01-23T23:45:31.821Z,3.85
2023-01-23T23:48:35.650Z,6.90
2023-01-23T23:51:38.382Z,4.13
2023-01-23T23:54:40.975Z,5.72
2023-01-23T23:57:43.575Z,7.07
